Time,TemperatureF,DewpointF,PressureIn,WindDirection,WindDirectionDegrees,WindSpeedMPH,WindSpeedGustMPH,Humidity,HourlyPrecipIn,Conditions,Clouds,dailyrainin,SoftwareType,DateUTC
2013-11-15 00:01:00,31.6,30.0,29.88,SW,221,0.0,0.0,95,0.00,,,0.00,weatherlink.com 1.10,2013-11-15 06:01:00,
2013-11-15 00:16:00,31.6,30.0,29.89,SW,221,0.0,0.0,95,0.00,,,0.00,weatherlink.com 1.10,2013-11-15 06:16:00,
2013-11-15 00:31:00,30.4,29.0,29.89,SSW,211,0.0,0.0,94,0.00,,,0.00,weatherlink.com 1.10,2013-11-15 06:31:00,
2013-11-15 00:46:00,30.3,29.0,29.89,SW,224,0.0,0.0,95,0.00,,,0.00,weatherlink.com 1.10,2013-11-15 06:46:00,
2013-11-15 01:01:00,30.1,29.0,29.89,SW,223,0.0,0.0,95,0.00,,,0.00,weatherlink.com 1.10,2013-11-15 07:01:00,
2013-11-15 01:16:00,29.8,29.0,29.89,SW,223,0.0,0.0,95,0.00,,,0.00,weatherlink.com 1.10,2013-11-15 07:16:00,
2013-11-15 01:31:00,29.3,28.0,29.88,SW,223,0.0,0.0,95,0.00,,,0.00,weatherlink.com 1.10,2013-11-15 07:31:00,
2013-11-15 01:46:00,29.4,28.0,29.89,SSW,207,0.0,0.0,96,0.00,,,0.00,weatherlink.com 1.10,2013-11-15 07:46:00,
2013-11-15 02:01:00,29.5,29.0,29.89,SSW,205,0.0,0.0,96,0.00,,,0.00,weatherlink.com 1.10,2013-11-15 08:01:00,
2013-11-15 02:16:00,29.2,28.0,29.89,SSW,211,0.0,0.0,96,0.00,,,0.00,weatherlink.com 1.10,2013-11-15 08:16:00,
2013-11-15 02:31:00,29.2,28.0,29.90,SW,214,0.0,0.0,96,0.00,,,0.00,weatherlink.com 1.10,2013-11-15 08:31:00,
2013-11-15 02:46:00,28.9,28.0,29.89,SW,214,0.0,0.0,96,0.00,,,0.00,weatherlink.com 1.10,2013-11-15 08:46:00,
2013-11-15 03:01:00,28.4,27.0,29.89,SW,214,0.0,0.0,96,0.00,,,0.00,weatherlink.com 1.10,2013-11-15 09:01:00,
2013-11-15 03:16:00,28.2,27.0,29.89,SSW,213,0.0,0.0,96,0.00,,,0.00,weatherlink.com 1.10,2013-11-15 09:16:00,
2013-11-15 03:31:00,27.6,27.0,29.88,SW,214,0.0,0.0,96,0.00,,,0.00,weatherlink.com 1.10,2013-11-15 09:31:00,
2013-11-15 03:46:00,28.0,27.0,29.88,SSW,213,0.0,0.0,96,0.00,,,0.00,weatherlink.com 1.10,2013-11-15 09:46:00,
2013-11-15 04:01:00,27.8,27.0,29.88,SSW,213,0.0,0.0,96,0.00,,,0.00,weatherlink.com 1.10,2013-11-15 10:01:00,
2013-11-15 04:16:00,27.4,26.0,29.88,SSW,213,0.0,0.0,96,0.00,,,0.00,weatherlink.com 1.10,2013-11-15 10:16:00,
2013-11-15 04:31:00,26.8,26.0,29.89,SSW,194,0.0,0.0,96,0.00,,,0.00,weatherlink.com 1.10,2013-11-15 10:31:00,
2013-11-15 04:46:00,27.4,27.0,29.89,SSW,206,0.0,0.0,97,0.00,,,0.00,weatherlink.com 1.10,2013-11-15 10:46:00,
2013-11-15 05:01:00,27.7,27.0,29.89,SSE,165,0.0,1.0,97,0.00,,,0.00,weatherlink.com 1.10,2013-11-15 11:01:00,
2013-11-15 05:16:00,27.6,27.0,29.89,South,175,0.0,1.0,96,0.00,,,0.00,weatherlink.com 1.10,2013-11-15 11:16:00,
2013-11-15 05:31:00,27.5,27.0,29.89,SSE,153,0.0,0.0,96,0.00,,,0.00,weatherlink.com 1.10,2013-11-15 11:31:00,
2013-11-15 05:47:00,27.2,26.0,29.89,SSE,153,0.0,0.0,96,0.00,,,0.00,weatherlink.com 1.10,2013-11-15 11:47:00,
2013-11-15 06:02:00,26.7,26.0,29.88,SE,138,0.0,0.0,96,0.00,,,0.00,weatherlink.com 1.10,2013-11-15 12:02:00,
2013-11-15 06:17:00,26.5,26.0,29.88,SE,138,0.0,0.0,96,0.00,,,0.00,weatherlink.com 1.10,2013-11-15 12:17:00,
2013-11-15 06:32:00,26.6,26.0,29.88,SE,138,0.0,0.0,96,0.00,,,0.00,weatherlink.com 1.10,2013-11-15 12:32:00,
2013-11-15 06:47:00,26.9,26.0,29.88,ESE,108,0.0,0.0,96,0.00,,,0.00,weatherlink.com 1.10,2013-11-15 12:47:00,
2013-11-15 07:02:00,26.5,25.0,29.88,South,169,0.0,1.0,95,0.00,,,0.00,weatherlink.com 1.10,2013-11-15 13:02:00,
2013-11-15 07:17:00,26.3,25.0,29.89,SSE,154,0.0,0.0,95,0.00,,,0.00,weatherlink.com 1.10,2013-11-15 13:17:00,
2013-11-15 07:32:00,27.4,26.0,29.89,SSE,166,0.0,1.0,96,0.00,,,0.00,weatherlink.com 1.10,2013-11-15 13:32:00,
2013-11-15 07:47:00,28.5,28.0,29.89,SSE,166,0.0,0.0,96,0.00,,,0.00,weatherlink.com 1.10,2013-11-15 13:47:00,
2013-11-15 08:02:00,30.2,29.0,29.90,SSW,205,0.0,2.0,94,0.00,,,0.00,weatherlink.com 1.10,2013-11-15 14:02:00,
2013-11-15 08:17:00,30.8,29.0,29.90,SSW,207,2.0,4.0,92,0.00,,,0.00,weatherlink.com 1.10,2013-11-15 14:17:00,
2013-11-15 08:32:00,31.4,29.0,29.90,SW,216,4.0,5.0,91,0.00,,,0.00,weatherlink.com 1.10,2013-11-15 14:32:00,
2013-11-15 08:47:00,32.8,31.0,29.90,SSW,199,2.0,4.0,91,0.00,,,0.00,weatherlink.com 1.10,2013-11-15 14:47:00,
2013-11-15 09:02:00,33.6,31.0,29.90,SSW,208,2.0,5.0,91,0.00,,,0.00,weatherlink.com 1.10,2013-11-15 15:02:00,
2013-11-15 09:17:00,34.9,32.0,29.90,SW,227,2.0,5.0,90,0.00,,,0.00,weatherlink.com 1.10,2013-11-15 15:17:00,
2013-11-15 09:32:00,36.6,33.0,29.90,SW,228,4.0,8.0,88,0.00,,,0.00,weatherlink.com 1.10,2013-11-15 15:32:00,
2013-11-15 09:47:00,38.4,35.0,29.89,SE,139,1.0,6.0,87,0.00,,,0.00,weatherlink.com 1.10,2013-11-15 15:47:00,
2013-11-15 10:02:00,40.7,37.0,29.89,SE,144,0.0,4.0,85,0.00,,,0.00,weatherlink.com 1.10,2013-11-15 16:02:00,
2013-11-15 10:17:00,41.9,37.0,29.89,SSE,167,2.0,5.0,84,0.00,,,0.00,weatherlink.com 1.10,2013-11-15 16:17:00,
2013-11-15 10:32:00,42.8,38.0,29.90,SSW,211,3.0,7.0,83,0.00,,,0.00,weatherlink.com 1.10,2013-11-15 16:32:00,
2013-11-15 10:48:00,43.9,38.0,29.89,SW,229,2.0,4.0,81,0.00,,,0.00,weatherlink.com 1.10,2013-11-15 16:48:00,
2013-11-15 11:02:00,44.6,38.0,29.89,South,172,1.0,4.0,79,0.00,,,0.00,weatherlink.com 1.10,2013-11-15 17:02:00,
2013-11-15 11:17:00,44.9,39.0,29.88,SW,217,4.0,6.0,79,0.00,,,0.00,weatherlink.com 1.10,2013-11-15 17:17:00,
2013-11-15 11:32:00,46.1,40.0,29.87,SE,138,1.0,6.0,78,0.00,,,0.00,weatherlink.com 1.10,2013-11-15 17:32:00,
2013-11-15 11:48:00,48.4,41.0,29.86,ESE,105,2.0,5.0,75,0.00,,,0.00,weatherlink.com 1.10,2013-11-15 17:48:00,
2013-11-15 12:03:00,50.1,41.0,29.86,ESE,109,2.0,5.0,71,0.00,,,0.00,weatherlink.com 1.10,2013-11-15 18:03:00,
2013-11-15 12:18:00,51.2,42.0,29.85,East,101,4.0,5.0,71,0.00,,,0.00,weatherlink.com 1.10,2013-11-15 18:18:00,
2013-11-15 12:48:00,53.2,42.0,29.84,SSW,208,2.0,9.0,65,0.00,,,0.00,weatherlink.com 1.10,2013-11-15 18:48:00,
2013-11-15 13:03:00,53.6,42.0,29.83,South,169,10.0,10.0,64,0.00,,,0.00,weatherlink.com 1.10,2013-11-15 19:03:00,
2013-11-15 13:18:00,53.4,41.0,29.83,ESE,120,7.0,7.0,64,0.00,,,0.00,weatherlink.com 1.10,2013-11-15 19:18:00,
2013-11-15 13:33:00,54.0,41.0,29.82,SE,138,3.0,11.0,62,0.00,,,0.00,weatherlink.com 1.10,2013-11-15 19:33:00,
2013-11-15 14:03:00,54.1,41.0,29.81,SSW,198,4.0,9.0,61,0.00,,,0.00,weatherlink.com 1.10,2013-11-15 20:03:00,
2013-11-15 14:18:00,53.3,40.0,29.80,SE,131,4.0,10.0,62,0.00,,,0.00,weatherlink.com 1.10,2013-11-15 20:18:00,
2013-11-15 14:33:00,52.9,41.0,29.80,SW,225,3.0,6.0,64,0.00,,,0.00,weatherlink.com 1.10,2013-11-15 20:33:00,
2013-11-15 14:49:00,52.8,40.0,29.80,SSE,167,3.0,6.0,63,0.00,,,0.00,weatherlink.com 1.10,2013-11-15 20:49:00,
2013-11-15 15:03:00,52.6,41.0,29.80,East,91,3.0,7.0,64,0.00,,,0.00,weatherlink.com 1.10,2013-11-15 21:03:00,
2013-11-15 15:18:00,52.6,40.0,29.80,ESE,117,5.0,7.0,63,0.00,,,0.00,weatherlink.com 1.10,2013-11-15 21:18:00,
2013-11-15 15:33:00,52.3,40.0,29.79,SE,146,6.0,6.0,63,0.00,,,0.00,weatherlink.com 1.10,2013-11-15 21:33:00,
2013-11-15 15:48:00,52.2,40.0,29.79,East,94,3.0,6.0,63,0.00,,,0.00,weatherlink.com 1.10,2013-11-15 21:48:00,
2013-11-15 16:03:00,51.5,40.0,29.78,SSE,151,2.0,4.0,64,0.00,,,0.00,weatherlink.com 1.10,2013-11-15 22:03:00,
2013-11-15 16:18:00,50.3,39.0,29.78,ESE,123,1.0,4.0,66,0.00,,,0.00,weatherlink.com 1.10,2013-11-15 22:18:00,
2013-11-15 16:33:00,49.1,39.0,29.77,ESE,113,3.0,4.0,68,0.00,,,0.00,weatherlink.com 1.10,2013-11-15 22:33:00,
2013-11-15 16:48:00,47.9,39.0,29.76,ESE,112,0.0,6.0,70,0.00,,,0.00,weatherlink.com 1.10,2013-11-15 22:48:00,
2013-11-15 17:05:00,46.8,38.0,29.76,SE,127,1.0,4.0,71,0.00,,,0.00,weatherlink.com 1.10,2013-11-15 23:05:00,
2013-11-15 17:18:00,45.6,37.0,29.76,SSE,153,2.0,4.0,73,0.00,,,0.00,weatherlink.com 1.10,2013-11-15 23:18:00,
2013-11-15 17:33:00,44.6,36.0,29.76,ENE,78,1.0,4.0,73,0.00,,,0.00,weatherlink.com 1.10,2013-11-15 23:33:00,
2013-11-15 17:48:00,44.1,36.0,29.76,SE,146,2.0,6.0,73,0.00,,,0.00,weatherlink.com 1.10,2013-11-15 23:48:00,
2013-11-15 18:03:00,43.6,35.0,29.75,East,100,2.0,6.0,73,0.00,,,0.00,weatherlink.com 1.10,2013-11-16 00:03:00,
2013-11-15 18:18:00,43.1,35.0,29.74,SE,132,2.0,7.0,73,0.00,,,0.00,weatherlink.com 1.10,2013-11-16 00:18:00,
2013-11-15 18:33:00,42.8,35.0,29.74,SE,128,3.0,8.0,74,0.00,,,0.00,weatherlink.com 1.10,2013-11-16 00:33:00,
2013-11-15 18:49:00,43.0,35.0,29.74,ESE,118,4.0,8.0,73,0.00,,,0.00,weatherlink.com 1.10,2013-11-16 00:49:00,
2013-11-15 19:03:00,42.9,35.0,29.75,East,91,2.0,6.0,73,0.00,,,0.00,weatherlink.com 1.10,2013-11-16 01:03:00,
2013-11-15 19:19:00,42.5,35.0,29.74,ESE,105,2.0,10.0,74,0.00,,,0.00,weatherlink.com 1.10,2013-11-16 01:19:00,
2013-11-15 19:34:00,42.1,35.0,29.74,SE,138,3.0,8.0,75,0.00,,,0.00,weatherlink.com 1.10,2013-11-16 01:34:00,
2013-11-15 19:49:00,41.3,34.0,29.74,East,100,4.0,7.0,76,0.00,,,0.00,weatherlink.com 1.10,2013-11-16 01:49:00,
2013-11-15 20:04:00,40.9,34.0,29.74,South,181,3.0,7.0,77,0.00,,,0.00,weatherlink.com 1.10,2013-11-16 02:04:00,
2013-11-15 20:19:00,40.8,34.0,29.73,ESE,104,2.0,7.0,77,0.00,,,0.00,weatherlink.com 1.10,2013-11-16 02:19:00,
2013-11-15 20:34:00,40.1,34.0,29.73,East,93,1.0,7.0,78,0.00,,,0.00,weatherlink.com 1.10,2013-11-16 02:34:00,
2013-11-15 20:49:00,40.5,34.0,29.73,East,94,3.0,9.0,79,0.00,,,0.00,weatherlink.com 1.10,2013-11-16 02:49:00,
2013-11-15 21:04:00,40.8,34.0,29.73,South,174,7.0,9.0,78,0.00,,,0.00,weatherlink.com 1.10,2013-11-16 03:04:00,
2013-11-15 21:19:00,40.6,34.0,29.74,ESE,102,1.0,7.0,78,0.00,,,0.00,weatherlink.com 1.10,2013-11-16 03:19:00,
2013-11-15 21:34:00,40.6,35.0,29.74,SSE,148,2.0,7.0,79,0.00,,,0.00,weatherlink.com 1.10,2013-11-16 03:34:00,
2013-11-15 21:49:00,40.1,34.0,29.74,SSE,167,1.0,8.0,80,0.00,,,0.00,weatherlink.com 1.10,2013-11-16 03:49:00,
2013-11-15 22:04:00,40.1,34.0,29.73,SE,131,3.0,5.0,80,0.00,,,0.00,weatherlink.com 1.10,2013-11-16 04:04:00,
2013-11-15 22:19:00,39.2,34.0,29.72,SSE,154,2.0,4.0,81,0.00,,,0.00,weatherlink.com 1.10,2013-11-16 04:19:00,
2013-11-15 22:34:00,37.9,33.0,29.72,East,91,1.0,4.0,83,0.00,,,0.00,weatherlink.com 1.10,2013-11-16 04:34:00,
2013-11-15 22:49:00,37.4,33.0,29.71,SE,135,0.0,3.0,85,0.00,,,0.00,weatherlink.com 1.10,2013-11-16 04:49:00,
2013-11-15 23:04:00,37.2,33.0,29.72,ESE,116,0.0,3.0,86,0.00,,,0.00,weatherlink.com 1.10,2013-11-16 05:04:00,
2013-11-15 23:19:00,36.7,33.0,29.71,ESE,120,2.0,4.0,87,0.00,,,0.00,weatherlink.com 1.10,2013-11-16 05:19:00,
2013-11-15 23:34:00,37.1,34.0,29.70,ESE,120,4.0,7.0,88,0.00,,,0.00,weatherlink.com 1.10,2013-11-16 05:34:00,
2013-11-15 23:49:00,38.0,35.0,29.69,ESE,120,1.0,7.0,88,0.00,,,0.00,weatherlink.com 1.10,2013-11-16 05:49:00,